sensor_id;sensor_type;location;lat;lon;timestamp;pressure;altitude;pressure_sealevel;temperature;humidity
55347;BME280;41218;55.700;38.270;2022-07-05T00:02:09;99774.22;;;18.90;57.52
55347;BME280;41218;55.700;38.270;2022-07-05T00:07:10;99761.38;;;18.65;57.72
55347;BME280;41218;55.700;38.270;2022-07-05T00:12:21;99759.53;;;18.55;58.16
55347;BME280;41218;55.700;38.270;2022-07-05T00:17:23;99756.06;;;18.47;57.88
55347;BME280;41218;55.700;38.270;2022-07-05T00:22:23;99770.06;;;18.47;57.88
55347;BME280;41218;55.700;38.270;2022-07-05T00:27:23;99771.81;;;18.61;57.83
55347;BME280;41218;55.700;38.270;2022-07-05T00:32:24;99786.84;;;18.47;58.10
55347;BME280;41218;55.700;38.270;2022-07-05T00:37:24;99779.19;;;18.51;57.68
55347;BME280;41218;55.700;38.270;2022-07-05T00:42:26;99752.91;;;18.18;58.00
55347;BME280;41218;55.700;38.270;2022-07-05T00:47:26;99782.13;;;18.40;57.73
55347;BME280;41218;55.700;38.270;2022-07-05T00:52:27;99764.94;;;18.15;57.96
55347;BME280;41218;55.700;38.270;2022-07-05T00:57:27;99789.91;;;18.29;57.88
55347;BME280;41218;55.700;38.270;2022-07-05T01:02:28;99775.47;;;18.04;58.17
55347;BME280;41218;55.700;38.270;2022-07-05T01:07:28;99787.25;;;18.18;57.79
55347;BME280;41218;55.700;38.270;2022-07-05T01:12:29;99774.78;;;17.96;58.07
55347;BME280;41218;55.700;38.270;2022-07-05T01:17:29;99783.41;;;18.09;58.09
55347;BME280;41218;55.700;38.270;2022-07-05T01:22:59;99784.81;;;17.93;58.73
55347;BME280;41218;55.700;38.270;2022-07-05T01:28:03;99785.72;;;17.83;58.51
55347;BME280;41218;55.700;38.270;2022-07-05T01:33:05;99763.84;;;17.74;58.70
55347;BME280;41218;55.700;38.270;2022-07-05T01:38:06;99781.78;;;17.77;58.68
55347;BME280;41218;55.700;38.270;2022-07-05T01:43:06;99788.41;;;17.90;58.58
55347;BME280;41218;55.700;38.270;2022-07-05T01:48:12;99802.56;;;17.76;59.31
55347;BME280;41218;55.700;38.270;2022-07-05T01:53:24;99784.72;;;17.66;60.19
55347;BME280;41218;55.700;38.270;2022-07-05T01:58:27;99797.50;;;17.63;59.86
55347;BME280;41218;55.700;38.270;2022-07-05T02:03:29;99788.06;;;17.54;59.92
55347;BME280;41218;55.700;38.270;2022-07-05T02:08:30;99771.13;;;17.34;60.28
55347;BME280;41218;55.700;38.270;2022-07-05T02:13:30;99785.13;;;17.65;59.78
55347;BME280;41218;55.700;38.270;2022-07-05T02:18:31;99782.88;;;17.52;59.90
55347;BME280;41218;55.700;38.270;2022-07-05T02:23:31;99778.38;;;17.62;59.49
55347;BME280;41218;55.700;38.270;2022-07-05T02:28:32;99765.81;;;17.43;60.29
55347;BME280;41218;55.700;38.270;2022-07-05T02:33:32;99787.22;;;17.57;59.92
55347;BME280;41218;55.700;38.270;2022-07-05T02:38:33;99769.44;;;17.40;60.62
55347;BME280;41218;55.700;38.270;2022-07-05T02:43:33;99791.59;;;17.58;60.59
55347;BME280;41218;55.700;38.270;2022-07-05T02:48:35;99765.47;;;17.37;60.78
55347;BME280;41218;55.700;38.270;2022-07-05T02:53:36;99742.03;;;17.28;61.31
55347;BME280;41218;55.700;38.270;2022-07-05T02:58:37;99778.28;;;17.69;60.80
55347;BME280;41218;55.700;38.270;2022-07-05T03:03:37;99747.50;;;17.38;61.59
55347;BME280;41218;55.700;38.270;2022-07-05T03:08:38;99782.97;;;17.76;61.18
55347;BME280;41218;55.700;38.270;2022-07-05T03:13:38;99763.94;;;17.67;62.09
55347;BME280;41218;55.700;38.270;2022-07-05T03:18:38;99788.13;;;17.85;61.77
55347;BME280;41218;55.700;38.270;2022-07-05T03:23:39;99769.84;;;17.73;62.83
55347;BME280;41218;55.700;38.270;2022-07-05T03:28:40;99794.81;;;17.91;63.32
55347;BME280;41218;55.700;38.270;2022-07-05T03:33:40;99803.41;;;18.07;63.24
55347;BME280;41218;55.700;38.270;2022-07-05T03:38:40;99808.09;;;18.14;63.83
55347;BME280;41218;55.700;38.270;2022-07-05T03:43:41;99805.88;;;18.29;63.58
55347;BME280;41218;55.700;38.270;2022-07-05T03:48:41;99790.88;;;18.19;64.27
55347;BME280;41218;55.700;38.270;2022-07-05T03:53:42;99814.00;;;18.50;64.29
55347;BME280;41218;55.700;38.270;2022-07-05T03:58:42;99804.44;;;18.48;64.81
55347;BME280;41218;55.700;38.270;2022-07-05T04:03:43;99827.94;;;18.81;64.74
55347;BME280;41218;55.700;38.270;2022-07-05T04:08:43;99798.75;;;18.78;65.10
55347;BME280;41218;55.700;38.270;2022-07-05T04:13:44;99815.63;;;19.02;65.80
55347;BME280;41218;55.700;38.270;2022-07-05T04:18:44;99821.50;;;19.31;65.61
55347;BME280;41218;55.700;38.270;2022-07-05T04:23:45;99802.25;;;19.33;65.42
55347;BME280;41218;55.700;38.270;2022-07-05T04:28:45;99825.97;;;19.69;65.80
55347;BME280;41218;55.700;38.270;2022-07-05T04:33:46;99808.63;;;19.77;65.07
55347;BME280;41218;55.700;38.270;2022-07-05T04:38:46;99812.44;;;19.87;64.93
55347;BME280;41218;55.700;38.270;2022-07-05T04:43:47;99823.13;;;20.12;64.42
55347;BME280;41218;55.700;38.270;2022-07-05T04:48:47;99800.44;;;20.23;64.22
55347;BME280;41218;55.700;38.270;2022-07-05T04:53:48;99814.50;;;20.59;63.36
55347;BME280;41218;55.700;38.270;2022-07-05T04:58:48;99831.97;;;20.84;63.64
55347;BME280;41218;55.700;38.270;2022-07-05T05:03:49;99796.94;;;20.88;63.20
55347;BME280;41218;55.700;38.270;2022-07-05T05:08:49;99814.31;;;21.16;62.54
55347;BME280;41218;55.700;38.270;2022-07-05T05:13:50;99813.06;;;21.33;62.12
55347;BME280;41218;55.700;38.270;2022-07-05T05:18:50;99825.47;;;21.65;61.65
55347;BME280;41218;55.700;38.270;2022-07-05T05:23:51;99813.13;;;21.75;60.85
55347;BME280;41218;55.700;38.270;2022-07-05T05:28:52;99818.25;;;21.93;60.73
55347;BME280;41218;55.700;38.270;2022-07-05T05:33:52;99832.38;;;22.19;59.88
55347;BME280;41218;55.700;38.270;2022-07-05T05:38:53;99836.59;;;22.40;59.63
55347;BME280;41218;55.700;38.270;2022-07-05T05:43:54;99835.03;;;22.65;59.20
55347;BME280;41218;55.700;38.270;2022-07-05T05:48:54;99828.38;;;22.84;58.40
55347;BME280;41218;55.700;38.270;2022-07-05T05:53:55;99817.41;;;22.99;57.90
55347;BME280;41218;55.700;38.270;2022-07-05T05:58:55;99818.66;;;23.24;57.48
55347;BME280;41218;55.700;38.270;2022-07-05T06:03:56;99822.09;;;23.40;56.87
55347;BME280;41218;55.700;38.270;2022-07-05T06:08:56;99808.59;;;23.57;56.03
55347;BME280;41218;55.700;38.270;2022-07-05T06:13:57;99804.78;;;23.73;55.09
55347;BME280;41218;55.700;38.270;2022-07-05T06:18:57;99811.63;;;24.07;54.87
55347;BME280;41218;55.700;38.270;2022-07-05T06:23:58;99809.50;;;24.20;54.01
55347;BME280;41218;55.700;38.270;2022-07-05T06:28:59;99821.19;;;24.41;53.99
55347;BME280;41218;55.700;38.270;2022-07-05T06:33:59;99811.34;;;24.46;53.25
55347;BME280;41218;55.700;38.270;2022-07-05T06:39:00;99798.22;;;24.52;52.56
55347;BME280;41218;55.700;38.270;2022-07-05T06:44:00;99814.03;;;24.81;51.93
55347;BME280;41218;55.700;38.270;2022-07-05T06:49:01;99803.81;;;24.83;51.15
55347;BME280;41218;55.700;38.270;2022-07-05T06:54:02;99795.84;;;25.00;50.68
55347;BME280;41218;55.700;38.270;2022-07-05T06:59:02;99802.47;;;25.15;50.26
55347;BME280;41218;55.700;38.270;2022-07-05T07:04:03;99802.50;;;25.34;49.72
55347;BME280;41218;55.700;38.270;2022-07-05T07:09:03;99783.63;;;25.40;48.73
55347;BME280;41218;55.700;38.270;2022-07-05T07:14:21;99775.47;;;25.42;48.75
55347;BME280;41218;55.700;38.270;2022-07-05T07:19:21;99797.44;;;25.75;48.49
55347;BME280;41218;55.700;38.270;2022-07-05T07:24:22;99796.03;;;25.89;47.64
55347;BME280;41218;55.700;38.270;2022-07-05T07:29:23;99797.91;;;26.01;47.27
55347;BME280;41218;55.700;38.270;2022-07-05T07:34:24;99803.53;;;26.19;47.38
55347;BME280;41218;55.700;38.270;2022-07-05T07:39:25;99805.88;;;26.30;46.82
55347;BME280;41218;55.700;38.270;2022-07-05T07:44:26;99793.25;;;26.31;46.68
55347;BME280;41218;55.700;38.270;2022-07-05T07:49:27;99789.63;;;26.40;46.59
55347;BME280;41218;55.700;38.270;2022-07-05T07:54:27;99790.53;;;26.46;45.81
55347;BME280;41218;55.700;38.270;2022-07-05T07:59:28;99775.41;;;26.58;45.67
55347;BME280;41218;55.700;38.270;2022-07-05T08:04:28;99808.16;;;26.84;45.58
55347;BME280;41218;55.700;38.270;2022-07-05T08:09:30;99790.22;;;26.87;44.66
55347;BME280;41218;55.700;38.270;2022-07-05T08:14:31;99786.81;;;26.97;44.50
55347;BME280;41218;55.700;38.270;2022-07-05T08:19:31;99794.41;;;27.15;44.44
55347;BME280;41218;55.700;38.270;2022-07-05T08:24:51;99779.06;;;27.22;44.76
55347;BME280;41218;55.700;38.270;2022-07-05T08:29:51;99762.69;;;27.26;43.71
55347;BME280;41218;55.700;38.270;2022-07-05T08:34:52;99758.19;;;27.34;43.87
55347;BME280;41218;55.700;38.270;2022-07-05T08:39:52;99760.38;;;27.54;43.93
55347;BME280;41218;55.700;38.270;2022-07-05T08:44:54;99763.16;;;27.64;43.18
55347;BME280;41218;55.700;38.270;2022-07-05T08:49:55;99762.16;;;27.67;43.11
55347;BME280;41218;55.700;38.270;2022-07-05T08:54:58;99778.91;;;27.80;43.76
55347;BME280;41218;55.700;38.270;2022-07-05T08:59:59;99772.41;;;27.88;42.98
55347;BME280;41218;55.700;38.270;2022-07-05T09:05:00;99727.03;;;27.64;41.79
55347;BME280;41218;55.700;38.270;2022-07-05T09:10:03;99725.16;;;27.76;41.43
55347;BME280;41218;55.700;38.270;2022-07-05T09:15:07;99747.19;;;27.96;41.32
55347;BME280;41218;55.700;38.270;2022-07-05T09:20:08;99767.56;;;28.24;41.91
55347;BME280;41218;55.700;38.270;2022-07-05T09:25:20;99764.13;;;28.35;41.49
55347;BME280;41218;55.700;38.270;2022-07-05T09:30:38;99766.75;;;28.53;41.08
55347;BME280;41218;55.700;38.270;2022-07-05T09:35:43;99751.63;;;28.62;40.27
55347;BME280;41218;55.700;38.270;2022-07-05T09:40:53;99714.88;;;28.44;40.55
55347;BME280;41218;55.700;38.270;2022-07-05T09:45:59;99750.50;;;28.74;40.78
55347;BME280;41218;55.700;38.270;2022-07-05T09:51:13;99743.25;;;28.73;40.91
55347;BME280;41218;55.700;38.270;2022-07-05T09:56:14;99750.50;;;28.74;40.86
55347;BME280;41218;55.700;38.270;2022-07-05T10:01:26;99744.25;;;28.70;40.05
55347;BME280;41218;55.700;38.270;2022-07-05T10:06:28;99719.00;;;28.58;40.82
55347;BME280;41218;55.700;38.270;2022-07-05T10:11:31;99711.13;;;28.67;40.35
55347;BME280;41218;55.700;38.270;2022-07-05T10:16:32;99712.19;;;28.70;40.28
55347;BME280;41218;55.700;38.270;2022-07-05T10:21:34;99714.38;;;28.81;40.29
55347;BME280;41218;55.700;38.270;2022-07-05T10:26:36;99683.66;;;28.85;39.72
55347;BME280;41218;55.700;38.270;2022-07-05T10:31:37;99708.66;;;29.16;39.82
55347;BME280;41218;55.700;38.270;2022-07-05T10:36:38;99685.63;;;29.20;39.75
55347;BME280;41218;55.700;38.270;2022-07-05T10:41:40;99706.09;;;29.44;39.06
55347;BME280;41218;55.700;38.270;2022-07-05T10:46:41;99656.53;;;29.30;39.00
55347;BME280;41218;55.700;38.270;2022-07-05T10:51:43;99691.72;;;29.59;38.25
55347;BME280;41218;55.700;38.270;2022-07-05T11:02:40;99660.19;;;29.63;38.61
55347;BME280;41218;55.700;38.270;2022-07-05T11:08:00;99684.09;;;29.71;38.42
55347;BME280;41218;55.700;38.270;2022-07-05T11:13:35;99683.53;;;29.67;38.65
55347;BME280;41218;55.700;38.270;2022-07-05T11:18:36;99678.41;;;29.71;38.71
55347;BME280;41218;55.700;38.270;2022-07-05T11:23:37;99662.38;;;29.73;38.65
55347;BME280;41218;55.700;38.270;2022-07-05T11:28:44;99654.78;;;29.70;38.53
55347;BME280;41218;55.700;38.270;2022-07-05T11:33:45;99681.66;;;29.90;38.38
55347;BME280;41218;55.700;38.270;2022-07-05T11:39:20;99714.06;;;29.92;38.70
55347;BME280;41218;55.700;38.270;2022-07-05T11:44:22;99724.56;;;29.54;39.13
55347;BME280;41218;55.700;38.270;2022-07-05T11:49:23;99726.09;;;29.09;40.06
55347;BME280;41218;55.700;38.270;2022-07-05T11:54:25;99721.69;;;28.67;41.07
55347;BME280;41218;55.700;38.270;2022-07-05T11:59:27;99720.81;;;28.25;41.97
55347;BME280;41218;55.700;38.270;2022-07-05T12:04:29;99732.81;;;28.00;42.47
55347;BME280;41218;55.700;38.270;2022-07-05T12:09:32;99752.28;;;27.77;43.61
55347;BME280;41218;55.700;38.270;2022-07-05T12:14:51;99727.97;;;27.46;43.44
55347;BME280;41218;55.700;38.270;2022-07-05T12:19:53;99735.50;;;27.10;43.99
55347;BME280;41218;55.700;38.270;2022-07-05T12:24:54;99756.09;;;26.96;45.14
55347;BME280;41218;55.700;38.270;2022-07-05T12:29:56;99749.53;;;26.90;45.48
55347;BME280;41218;55.700;38.270;2022-07-05T12:34:57;99753.13;;;26.90;45.62
55347;BME280;41218;55.700;38.270;2022-07-05T12:40:21;99729.06;;;26.62;46.65
55347;BME280;41218;55.700;38.270;2022-07-05T12:45:22;99724.00;;;26.32;47.18
55347;BME280;41218;55.700;38.270;2022-07-05T12:50:29;99757.69;;;26.30;47.84
55347;BME280;41218;55.700;38.270;2022-07-05T12:55:36;99752.75;;;26.07;47.99
55347;BME280;41218;55.700;38.270;2022-07-05T13:00:55;99737.50;;;25.95;47.79
55347;BME280;41218;55.700;38.270;2022-07-05T13:06:02;99748.38;;;25.96;48.91
55347;BME280;41218;55.700;38.270;2022-07-05T13:11:03;99736.28;;;25.68;49.50
55347;BME280;41218;55.700;38.270;2022-07-05T13:16:03;99731.00;;;25.43;50.48
55347;BME280;41218;55.700;38.270;2022-07-05T13:21:05;99713.88;;;25.28;51.38
55347;BME280;41218;55.700;38.270;2022-07-05T13:26:05;99693.25;;;24.99;52.58
55347;BME280;41218;55.700;38.270;2022-07-05T13:31:06;99675.66;;;24.68;53.49
55347;BME280;41218;55.700;38.270;2022-07-05T13:36:07;99718.66;;;24.63;54.34
55347;BME280;41218;55.700;38.270;2022-07-05T13:41:08;99683.38;;;24.27;54.88
55347;BME280;41218;55.700;38.270;2022-07-05T13:46:08;99690.75;;;24.24;55.11
55347;BME280;41218;55.700;38.270;2022-07-05T13:51:09;99687.97;;;24.33;55.30
55347;BME280;41218;55.700;38.270;2022-07-05T13:56:10;99682.63;;;24.45;54.61
55347;BME280;41218;55.700;38.270;2022-07-05T14:01:10;99701.53;;;24.57;55.25
55347;BME280;41218;55.700;38.270;2022-07-05T14:06:13;99699.50;;;24.57;55.27
55347;BME280;41218;55.700;38.270;2022-07-05T14:11:14;99690.19;;;24.48;55.49
55347;BME280;41218;55.700;38.270;2022-07-05T14:16:15;99741.66;;;24.43;56.28
55347;BME280;41218;55.700;38.270;2022-07-05T14:21:16;99756.88;;;24.45;56.59
55347;BME280;41218;55.700;38.270;2022-07-05T14:26:17;99741.25;;;24.22;56.80
55347;BME280;41218;55.700;38.270;2022-07-05T14:31:18;99732.75;;;24.13;57.45
55347;BME280;41218;55.700;38.270;2022-07-05T14:36:18;99779.25;;;24.30;57.74
55347;BME280;41218;55.700;38.270;2022-07-05T14:41:19;99765.06;;;24.12;57.45
55347;BME280;41218;55.700;38.270;2022-07-05T14:46:21;99759.34;;;24.03;57.64
55347;BME280;41218;55.700;38.270;2022-07-05T14:51:21;99760.00;;;24.07;57.72
55347;BME280;41218;55.700;38.270;2022-07-05T14:56:22;99746.44;;;23.92;57.80
55347;BME280;41218;55.700;38.270;2022-07-05T15:01:23;99759.44;;;23.90;57.90
55347;BME280;41218;55.700;38.270;2022-07-05T15:06:23;99738.44;;;23.69;57.71
55347;BME280;41218;55.700;38.270;2022-07-05T15:11:24;99768.88;;;23.74;58.11
55347;BME280;41218;55.700;38.270;2022-07-05T15:16:25;99775.50;;;23.58;58.41
55347;BME280;41218;55.700;38.270;2022-07-05T15:21:25;99817.50;;;23.56;58.54
55347;BME280;41218;55.700;38.270;2022-07-05T15:26:29;99832.28;;;23.25;59.17
55347;BME280;41218;55.700;38.270;2022-07-05T15:31:30;99856.09;;;22.98;59.45
55347;BME280;41218;55.700;38.270;2022-07-05T15:36:32;99877.75;;;22.76;58.99
55347;BME280;41218;55.700;38.270;2022-07-05T15:41:33;99882.72;;;22.59;59.29
55347;BME280;41218;55.700;38.270;2022-07-05T15:46:34;99905.91;;;22.50;58.85
55347;BME280;41218;55.700;38.270;2022-07-05T15:51:53;99899.91;;;22.35;58.60
55347;BME280;41218;55.700;38.270;2022-07-05T15:56:53;99889.69;;;22.12;58.32
55347;BME280;41218;55.700;38.270;2022-07-05T16:01:55;99891.91;;;22.05;58.55
55347;BME280;41218;55.700;38.270;2022-07-05T16:06:59;99895.06;;;22.07;58.54
55347;BME280;41218;55.700;38.270;2022-07-05T16:12:00;99902.28;;;22.08;58.46
55347;BME280;41218;55.700;38.270;2022-07-05T16:17:01;99873.06;;;21.89;58.44
55347;BME280;41218;55.700;38.270;2022-07-05T16:22:01;99856.03;;;21.79;58.31
55347;BME280;41218;55.700;38.270;2022-07-05T16:27:02;99906.59;;;22.12;58.47
55347;BME280;41218;55.700;38.270;2022-07-05T16:32:03;99846.28;;;21.84;58.11
55347;BME280;41218;55.700;38.270;2022-07-05T16:37:04;99826.22;;;21.82;58.15
55347;BME280;41218;55.700;38.270;2022-07-05T16:42:11;99797.50;;;21.74;57.94
55347;BME280;41218;55.700;38.270;2022-07-05T16:47:15;99771.25;;;21.65;58.54
55347;BME280;41218;55.700;38.270;2022-07-05T16:52:16;99778.06;;;21.80;58.38
55347;BME280;41218;55.700;38.270;2022-07-05T16:57:18;99741.75;;;21.56;58.32
55347;BME280;41218;55.700;38.270;2022-07-05T17:02:18;99758.09;;;21.62;58.57
55347;BME280;41218;55.700;38.270;2022-07-05T17:07:19;99741.28;;;21.45;58.66
55347;BME280;41218;55.700;38.270;2022-07-05T17:12:20;99776.19;;;21.60;58.75
55347;BME280;41218;55.700;38.270;2022-07-05T17:17:20;99716.03;;;21.12;58.72
55347;BME280;41218;55.700;38.270;2022-07-05T17:22:23;99771.69;;;21.34;58.91
55347;BME280;41218;55.700;38.270;2022-07-05T17:27:24;99760.47;;;21.17;59.00
55347;BME280;41218;55.700;38.270;2022-07-05T17:32:25;99757.50;;;21.08;59.37
55347;BME280;41218;55.700;38.270;2022-07-05T17:37:25;99738.63;;;20.92;59.25
55347;BME280;41218;55.700;38.270;2022-07-05T17:42:29;99746.19;;;20.95;59.60
55347;BME280;41218;55.700;38.270;2022-07-05T17:47:32;99758.66;;;20.94;59.73
55347;BME280;41218;55.700;38.270;2022-07-05T17:52:35;99768.41;;;20.90;59.69
55347;BME280;41218;55.700;38.270;2022-07-05T17:57:36;99749.66;;;20.87;59.77
55347;BME280;41218;55.700;38.270;2022-07-05T18:02:36;99786.31;;;20.96;59.82
55347;BME280;41218;55.700;38.270;2022-07-05T18:07:37;99776.41;;;20.91;60.01
55347;BME280;41218;55.700;38.270;2022-07-05T18:12:38;99755.72;;;20.69;60.26
55347;BME280;41218;55.700;38.270;2022-07-05T18:17:38;99741.09;;;20.57;60.49
55347;BME280;41218;55.700;38.270;2022-07-05T18:22:39;99766.41;;;20.74;60.55
55347;BME280;41218;55.700;38.270;2022-07-05T18:27:40;99736.28;;;20.58;60.67
55347;BME280;41218;55.700;38.270;2022-07-05T18:32:41;99700.75;;;20.35;60.53
55347;BME280;41218;55.700;38.270;2022-07-05T18:37:41;99748.25;;;20.62;60.43
55347;BME280;41218;55.700;38.270;2022-07-05T18:42:42;99729.34;;;20.46;60.97
55347;BME280;41218;55.700;38.270;2022-07-05T18:47:43;99727.94;;;20.38;60.65
55347;BME280;41218;55.700;38.270;2022-07-05T18:52:43;99731.47;;;20.42;61.08
55347;BME280;41218;55.700;38.270;2022-07-05T18:57:44;99709.59;;;20.17;60.90
55347;BME280;41218;55.700;38.270;2022-07-05T19:02:45;99718.63;;;20.25;61.11
55347;BME280;41218;55.700;38.270;2022-07-05T19:07:46;99725.47;;;20.24;61.46
55347;BME280;41218;55.700;38.270;2022-07-05T19:13:05;99709.31;;;20.11;61.35
55347;BME280;41218;55.700;38.270;2022-07-05T19:18:24;99726.00;;;20.18;61.16
55347;BME280;41218;55.700;38.270;2022-07-05T19:23:25;99700.78;;;19.98;61.29
55347;BME280;41218;55.700;38.270;2022-07-05T19:28:26;99717.00;;;20.07;61.29
55347;BME280;41218;55.700;38.270;2022-07-05T19:33:26;99729.84;;;20.08;61.51
55347;BME280;41218;55.700;38.270;2022-07-05T19:38:27;99695.16;;;19.82;61.59
55347;BME280;41218;55.700;38.270;2022-07-05T19:43:28;99700.81;;;19.78;61.59
55347;BME280;41218;55.700;38.270;2022-07-05T19:48:30;99709.34;;;19.75;61.82
55347;BME280;41218;55.700;38.270;2022-07-05T19:53:31;99699.03;;;19.68;61.91
55347;BME280;41218;55.700;38.270;2022-07-05T19:58:31;99736.44;;;19.81;61.73
55347;BME280;41218;55.700;38.270;2022-07-05T20:03:32;99723.59;;;19.60;61.97
55347;BME280;41218;55.700;38.270;2022-07-05T20:08:33;99746.75;;;19.65;62.34
55347;BME280;41218;55.700;38.270;2022-07-05T20:13:34;99739.00;;;19.52;62.06
55347;BME280;41218;55.700;38.270;2022-07-05T20:18:34;99738.28;;;19.48;61.96
55347;BME280;41218;55.700;38.270;2022-07-05T20:23:35;99738.28;;;19.48;61.85
55347;BME280;41218;55.700;38.270;2022-07-05T20:28:36;99738.13;;;19.35;61.89
55347;BME280;41218;55.700;38.270;2022-07-05T20:33:37;99733.47;;;19.29;62.35
55347;BME280;41218;55.700;38.270;2022-07-05T20:38:37;99721.56;;;19.01;62.53
55347;BME280;41218;55.700;38.270;2022-07-05T20:43:38;99714.66;;;18.86;62.67
55347;BME280;41218;55.700;38.270;2022-07-05T20:48:39;99735.78;;;18.90;62.83
55347;BME280;41218;55.700;38.270;2022-07-05T20:53:39;99740.88;;;18.95;62.96
55347;BME280;41218;55.700;38.270;2022-07-05T20:58:40;99745.28;;;18.96;62.59
55347;BME280;41218;55.700;38.270;2022-07-05T21:03:40;99744.72;;;19.05;62.38
55347;BME280;41218;55.700;38.270;2022-07-05T21:08:41;99746.19;;;18.90;62.13
55347;BME280;41218;55.700;38.270;2022-07-05T21:13:41;99749.28;;;18.95;61.92
55347;BME280;41218;55.700;38.270;2022-07-05T21:18:42;99686.56;;;18.42;61.84
55347;BME280;41218;55.700;38.270;2022-07-05T21:23:42;99737.91;;;18.83;61.76
55347;BME280;41218;55.700;38.270;2022-07-05T21:28:43;99698.63;;;18.39;61.88
55347;BME280;41218;55.700;38.270;2022-07-05T21:33:45;99708.34;;;18.31;62.02
55347;BME280;41218;55.700;38.270;2022-07-05T21:38:46;99718.75;;;18.30;62.27
55347;BME280;41218;55.700;38.270;2022-07-05T21:43:46;99727.91;;;18.31;62.30
55347;BME280;41218;55.700;38.270;2022-07-05T21:48:47;99700.59;;;18.15;62.36
55347;BME280;41218;55.700;38.270;2022-07-05T21:53:48;99715.00;;;18.13;62.24
55347;BME280;41218;55.700;38.270;2022-07-05T21:58:49;99732.94;;;18.16;62.22
55347;BME280;41218;55.700;38.270;2022-07-05T22:04:08;99740.19;;;18.13;62.37
55347;BME280;41218;55.700;38.270;2022-07-05T22:09:31;99757.34;;;18.15;62.56
55347;BME280;41218;55.700;38.270;2022-07-05T22:14:32;99745.97;;;17.99;62.45
55347;BME280;41218;55.700;38.270;2022-07-05T22:19:33;99741.34;;;17.89;62.38
55347;BME280;41218;55.700;38.270;2022-07-05T22:24:33;99773.75;;;18.13;62.23
55347;BME280;41218;55.700;38.270;2022-07-05T22:29:34;99768.34;;;17.99;62.25
55347;BME280;41218;55.700;38.270;2022-07-05T22:34:34;99776.25;;;18.04;62.07
55347;BME280;41218;55.700;38.270;2022-07-05T22:39:35;99735.72;;;17.58;62.24
55347;BME280;41218;55.700;38.270;2022-07-05T22:44:35;99771.66;;;17.90;62.06
55347;BME280;41218;55.700;38.270;2022-07-05T22:49:36;99746.13;;;17.54;62.32
55347;BME280;41218;55.700;38.270;2022-07-05T22:54:36;99780.16;;;17.79;62.21
55347;BME280;41218;55.700;38.270;2022-07-05T22:59:37;99735.06;;;17.43;62.44
55347;BME280;41218;55.700;38.270;2022-07-05T23:04:37;99793.84;;;17.70;62.11
55347;BME280;41218;55.700;38.270;2022-07-05T23:09:38;99738.44;;;17.27;62.39
55347;BME280;41218;55.700;38.270;2022-07-05T23:14:38;99790.75;;;17.61;62.29
55347;BME280;41218;55.700;38.270;2022-07-05T23:19:39;99790.53;;;17.45;62.26
55347;BME280;41218;55.700;38.270;2022-07-05T23:24:39;99789.78;;;17.40;62.40
55347;BME280;41218;55.700;38.270;2022-07-05T23:29:59;99756.94;;;17.14;62.87
55347;BME280;41218;55.700;38.270;2022-07-05T23:35:00;99784.41;;;17.19;62.84
55347;BME280;41218;55.700;38.270;2022-07-05T23:40:01;99798.22;;;17.33;62.57
55347;BME280;41218;55.700;38.270;2022-07-05T23:45:02;99765.50;;;16.96;62.50
55347;BME280;41218;55.700;38.270;2022-07-05T23:50:05;99801.13;;;17.26;62.58
55347;BME280;41218;55.700;38.270;2022-07-05T23:55:06;99789.34;;;17.04;62.62
